Time;durP1;ratioP1;P1;durP2;ratioP2;P2;SDS_P1;SDS_P2;PMS_P1;PMS_P2;Temp;Humidity;BMP_temperature;BMP_pressure;BME280_temperature;BME280_humidity;BME280_pressure;Samples;Min_cycle;Max_cycle;Signal;HPM_P1;HPM_P2
2023/03/29 00:02:02;;;;;;;2.63;2.20;;;;;;;5.87;100.00;100437.53;5071178;28;20318;-60
2023/03/29 00:04:28;;;;;;;2.87;2.57;;;;;;;6.04;100.00;100442.16;5050754;28;20198;-61
2023/03/29 00:06:54;;;;;;;2.27;2.07;;;;;;;5.94;100.00;100434.75;5050524;28;20174;-60
2023/03/29 00:09:19;;;;;;;5.67;3.43;;;;;;;5.88;100.00;100431.53;5051335;28;20217;-60
2023/03/29 00:11:45;;;;;;;4.23;2.60;;;;;;;5.96;100.00;100429.59;5070406;28;20227;-60
2023/03/29 00:14:11;;;;;;;5.33;2.40;;;;;;;5.92;100.00;100428.03;5057752;28;20162;-59
2023/03/29 00:16:37;;;;;;;2.67;2.43;;;;;;;5.88;100.00;100428.97;5051493;28;20528;-62
2023/03/29 00:19:03;;;;;;;3.13;2.50;;;;;;;5.91;100.00;100423.81;5052961;28;20293;-60
2023/03/29 00:21:29;;;;;;;5.67;3.03;;;;;;;5.87;100.00;100428.16;5056489;28;20702;-60
2023/03/29 00:23:55;;;;;;;5.70;4.13;;;;;;;5.90;100.00;100433.16;5061752;28;20600;-60
2023/03/29 00:26:20;;;;;;;3.00;2.37;;;;;;;6.01;100.00;100421.84;5051431;28;20272;-60
2023/03/29 00:28:46;;;;;;;6.60;4.60;;;;;;;6.05;100.00;100419.13;5052614;28;20268;-59
2023/03/29 00:31:13;;;;;;;4.17;2.50;;;;;;;6.00;100.00;100426.09;5054327;28;20228;-59
2023/03/29 00:33:40;;;;;;;3.00;2.70;;;;;;;5.93;100.00;100422.88;5046437;28;20184;-59
2023/03/29 00:36:07;;;;;;;3.03;2.70;;;;;;;6.06;100.00;100423.34;5075168;28;20182;-60
2023/03/29 00:38:32;;;;;;;7.67;2.43;;;;;;;6.10;100.00;100417.28;5039924;28;20180;-60
2023/03/29 00:40:58;;;;;;;3.40;2.43;;;;;;;6.00;100.00;100410.78;5043464;28;20337;-60
2023/03/29 00:43:23;;;;;;;4.77;3.07;;;;;;;5.94;100.00;100404.13;5068910;28;20180;-60
2023/03/29 00:45:49;;;;;;;4.27;2.87;;;;;;;6.07;100.00;100402.03;5049842;28;20193;-59
2023/03/29 00:48:20;;;;;;;9.97;5.93;;;;;;;6.01;100.00;100404.78;5051921;28;20650;-59
2023/03/29 00:50:55;;;;;;;5.57;4.63;;;;;;;5.93;100.00;100397.34;5053237;28;20238;-59
2023/03/29 00:53:32;;;;;;;3.27;2.30;;;;;;;5.95;100.00;100398.13;5059489;28;20188;-60
2023/03/29 00:56:30;;;;;;;4.50;2.67;;;;;;;5.88;100.00;100406.00;5050012;28;20184;-59
2023/03/29 00:59:03;;;;;;;4.70;2.63;;;;;;;6.07;100.00;100401.22;5041242;28;20566;-59
2023/03/29 01:01:44;;;;;;;2.93;2.60;;;;;;;5.84;100.00;100384.84;5049533;28;20231;-59
2023/03/29 01:04:41;;;;;;;3.00;2.77;;;;;;;5.71;100.00;100383.56;5056492;28;20276;-60
2023/03/29 01:07:20;;;;;;;3.20;2.70;;;;;;;5.85;100.00;100372.91;5040259;28;20270;-59
2023/03/29 01:09:52;;;;;;;3.90;3.17;;;;;;;5.92;100.00;100370.13;5051260;28;20229;-59
2023/03/29 01:12:25;;;;;;;4.57;2.93;;;;;;;5.94;100.00;100364.97;5057847;28;20246;-60
2023/03/29 01:14:55;;;;;;;3.60;2.37;;;;;;;5.87;100.00;100376.28;5077919;28;20252;-60
2023/03/29 01:17:20;;;;;;;6.20;3.90;;;;;;;5.99;100.00;100373.34;5075855;28;20188;-60
2023/03/29 01:19:57;;;;;;;4.70;2.97;;;;;;;5.87;100.00;100374.53;5051430;28;20567;-59
2023/03/29 01:22:41;;;;;;;4.67;3.30;;;;;;;5.84;100.00;100379.72;5056511;28;20235;-60
2023/03/29 01:25:26;;;;;;;2.93;2.57;;;;;;;5.85;100.00;100371.19;5051240;28;20227;-59
2023/03/29 01:28:06;;;;;;;5.23;2.40;;;;;;;5.80;100.00;100361.13;5050021;28;20208;-60
2023/03/29 01:30:40;;;;;;;3.70;2.73;;;;;;;5.77;100.00;100358.66;5048870;28;20235;-62
2023/03/29 01:33:19;;;;;;;6.57;3.93;;;;;;;5.79;100.00;100353.50;5060655;28;20218;-59
2023/03/29 01:35:53;;;;;;;4.10;2.60;;;;;;;5.94;100.00;100349.66;5030623;28;20185;-59
2023/03/29 01:38:46;;;;;;;2.93;2.53;;;;;;;5.70;100.00;100348.69;5050085;28;20177;-59
2023/03/29 01:41:12;;;;;;;3.87;2.90;;;;;;;5.78;100.00;100341.63;5046953;28;20685;-61
2023/03/29 01:43:50;;;;;;;2.70;2.50;;;;;;;5.60;100.00;100348.97;5064346;28;20268;-60
2023/03/29 01:46:33;;;;;;;3.20;2.90;;;;;;;5.62;100.00;100343.81;5049842;28;20204;-59
2023/03/29 01:49:10;;;;;;;5.27;2.47;;;;;;;5.82;100.00;100343.22;5049741;28;20182;-59
2023/03/29 01:51:44;;;;;;;3.17;2.57;;;;;;;5.89;100.00;100336.19;5066008;28;20711;-60
2023/03/29 01:54:19;;;;;;;4.93;3.80;;;;;;;5.88;100.00;100337.06;5055806;28;20206;-59
2023/03/29 01:56:48;;;;;;;3.33;2.00;;;;;;;5.92;100.00;100336.09;5049206;28;20174;-60
2023/03/29 01:59:19;;;;;;;3.97;3.27;;;;;;;5.82;100.00;100331.28;5051239;28;20193;-60
2023/03/29 02:01:49;;;;;;;3.87;2.83;;;;;;;5.93;100.00;100330.13;5056221;28;20244;-60
2023/03/29 02:04:21;;;;;;;7.63;3.07;;;;;;;5.94;100.00;100321.56;5051270;28;20291;-60
2023/03/29 02:06:49;;;;;;;9.70;5.93;;;;;;;5.76;100.00;100323.81;5049520;28;20261;-60
2023/03/29 02:09:15;;;;;;;5.53;2.90;;;;;;;5.87;100.00;100323.47;5049331;28;20217;-60
2023/03/29 02:11:42;;;;;;;4.37;2.70;;;;;;;5.78;100.00;100336.50;5056061;28;20219;-61
2023/03/29 02:14:08;;;;;;;7.23;4.77;;;;;;;5.88;100.00;100325.16;5055798;28;20264;-61
2023/03/29 02:16:37;;;;;;;2.93;2.53;;;;;;;5.88;100.00;100325.16;5052956;28;20276;-61
2023/03/29 02:19:05;;;;;;;4.40;3.70;;;;;;;5.86;100.00;100318.44;5053271;28;20185;-61
2023/03/29 02:21:50;;;;;;;4.00;2.90;;;;;;;5.93;100.00;100323.28;5057568;28;20220;-61
2023/03/29 02:24:18;;;;;;;3.00;2.33;;;;;;;5.88;100.00;100306.44;5054358;28;20208;-60
2023/03/29 02:26:44;;;;;;;2.47;2.27;;;;;;;5.87;100.00;100302.22;5086659;28;20283;-61
2023/03/29 02:29:10;;;;;;;3.77;3.27;;;;;;;5.94;100.00;100304.53;5054353;28;20173;-60
2023/03/29 02:31:41;;;;;;;4.37;2.63;;;;;;;5.85;100.00;100304.81;5059103;28;20733;-60
2023/03/29 02:34:28;;;;;;;3.40;2.67;;;;;;;5.80;100.00;100302.44;5055207;28;20680;-62
2023/03/29 02:37:02;;;;;;;3.67;2.80;;;;;;;5.89;100.00;100292.78;5053002;28;20331;-66
2023/03/29 02:39:30;;;;;;;3.43;2.63;;;;;;;5.87;100.00;100297.94;5074121;28;20212;-63
2023/03/29 02:41:56;;;;;;;5.77;3.93;;;;;;;5.82;100.00;100287.88;5078519;28;20238;-66
2023/03/29 02:44:25;;;;;;;7.37;3.23;;;;;;;5.98;100.00;100292.50;5043886;28;20691;-62
2023/03/29 02:46:56;;;;;;;3.17;2.70;;;;;;;5.84;100.00;100281.88;5083731;28;20640;-60
2023/03/29 02:49:21;;;;;;;5.73;3.03;;;;;;;5.82;100.00;100280.22;5052987;28;20181;-60
2023/03/29 02:51:52;;;;;;;2.67;2.47;;;;;;;5.77;100.00;100273.59;5071729;28;20223;-62
2023/03/29 02:54:22;;;;;;;8.63;4.10;;;;;;;5.76;100.00;100285.50;5053722;28;20187;-60
2023/03/29 02:56:53;;;;;;;4.47;3.17;;;;;;;5.78;100.00;100278.66;5085856;28;20193;-61
2023/03/29 02:59:21;;;;;;;6.13;4.60;;;;;;;5.75;100.00;100281.28;5052165;28;20177;-60
2023/03/29 03:01:47;;;;;;;5.93;3.23;;;;;;;5.71;100.00;100269.50;5049267;28;20278;-60
2023/03/29 03:04:12;;;;;;;8.67;6.83;;;;;;;5.50;100.00;100276.94;5054138;28;20198;-62
2023/03/29 03:06:38;;;;;;;8.57;3.60;;;;;;;5.61;100.00;100273.25;5053610;28;20538;-60
2023/03/29 03:09:04;;;;;;;6.07;2.50;;;;;;;5.56;100.00;100275.94;5053154;28;20267;-60
2023/03/29 03:11:30;;;;;;;3.33;2.87;;;;;;;5.54;100.00;100270.03;5057467;28;20222;-60
2023/03/29 03:13:56;;;;;;;5.00;4.07;;;;;;;5.53;100.00;100272.63;5056048;28;20664;-60
2023/03/29 03:16:22;;;;;;;7.03;3.30;;;;;;;5.48;100.00;100275.31;5064205;28;20280;-68
2023/03/29 03:18:50;;;;;;;5.50;3.50;;;;;;;5.52;100.00;100268.41;5057723;28;20651;-60
2023/03/29 03:21:16;;;;;;;4.20;2.87;;;;;;;5.54;100.00;100262.38;5055419;28;20273;-60
2023/03/29 03:23:42;;;;;;;5.90;3.33;;;;;;;5.45;100.00;100257.56;5056899;28;20968;-60
2023/03/29 03:26:07;;;;;;;5.73;3.20;;;;;;;5.40;100.00;100265.38;5053274;28;20228;-61
2023/03/29 03:28:33;;;;;;;3.70;3.00;;;;;;;5.33;100.00;100258.78;5052990;28;20209;-60
2023/03/29 03:30:58;;;;;;;5.83;4.07;;;;;;;5.45;100.00;100255.84;5029885;28;20238;-61
2023/03/29 03:33:25;;;;;;;8.03;6.63;;;;;;;5.40;100.00;100252.59;5060311;28;20188;-60
2023/03/29 03:35:51;;;;;;;6.33;3.67;;;;;;;5.57;100.00;100254.66;5051902;28;20632;-60
2023/03/29 03:38:16;;;;;;;7.60;2.97;;;;;;;5.63;100.00;100249.34;5052905;28;20192;-60
2023/03/29 03:40:42;;;;;;;4.07;2.93;;;;;;;5.55;100.00;100245.38;5053155;28;20757;-59
2023/03/29 03:43:07;;;;;;;5.83;3.90;;;;;;;5.53;100.00;100245.41;5074193;28;20699;-61
2023/03/29 03:45:33;;;;;;;4.67;2.87;;;;;;;5.66;100.00;100243.31;5052854;28;20209;-60
2023/03/29 03:47:58;;;;;;;4.63;3.53;;;;;;;5.66;100.00;100246.69;5053068;28;20189;-60
2023/03/29 03:50:23;;;;;;;8.40;3.37;;;;;;;5.64;100.00;100248.47;5048063;28;20217;-60
2023/03/29 03:52:49;;;;;;;3.90;3.00;;;;;;;5.62;100.00;100246.84;5078998;28;20212;-61
2023/03/29 03:55:15;;;;;;;6.53;4.00;;;;;;;5.72;100.00;100244.81;5052721;28;20281;-61
2023/03/29 03:57:40;;;;;;;5.63;3.40;;;;;;;5.79;100.00;100239.47;5051288;28;20205;-60
2023/03/29 04:00:19;;;;;;;5.77;4.10;;;;;;;5.85;100.00;100240.16;5043396;28;20729;-61
2023/03/29 04:02:45;;;;;;;5.17;3.90;;;;;;;5.87;100.00;100233.31;5065100;28;20177;-60
2023/03/29 04:05:11;;;;;;;5.00;3.60;;;;;;;5.91;100.00;100238.22;5084730;28;20201;-60
2023/03/29 04:07:37;;;;;;;5.67;3.90;;;;;;;5.89;100.00;100234.91;5050760;28;20273;-59
2023/03/29 04:10:05;;;;;;;3.73;3.37;;;;;;;6.00;100.00;100238.84;5049269;28;20267;-62
2023/03/29 04:12:30;;;;;;;5.77;3.47;;;;;;;5.96;100.00;100236.34;5083157;28;20267;-59
2023/03/29 04:14:55;;;;;;;4.93;3.87;;;;;;;6.01;100.00;100238.78;5052461;28;20644;-59
2023/03/29 04:17:20;;;;;;;5.07;3.30;;;;;;;6.01;100.00;100254.13;5052303;28;20181;-60
2023/03/29 04:19:46;;;;;;;4.10;3.57;;;;;;;6.00;100.00;100246.50;5052275;28;20198;-59
2023/03/29 04:22:11;;;;;;;4.53;3.87;;;;;;;5.93;100.00;100240.75;5074248;28;20309;-60
2023/03/29 04:24:36;;;;;;;4.67;3.83;;;;;;;5.91;100.00;100234.84;5051672;28;20688;-60
2023/03/29 04:27:01;;;;;;;5.47;4.17;;;;;;;5.89;100.00;100237.47;5052035;28;20214;-59
2023/03/29 04:29:27;;;;;;;4.90;4.23;;;;;;;5.96;100.00;100238.09;5052144;28;20675;-60
2023/03/29 04:31:53;;;;;;;4.40;3.83;;;;;;;5.97;100.00;100232.09;5071533;28;20309;-61
2023/03/29 04:34:18;;;;;;;5.20;4.00;;;;;;;6.01;100.00;100236.25;5054069;28;20193;-60
2023/03/29 04:36:44;;;;;;;5.37;4.00;;;;;;;5.96;100.00;100222.75;5051703;28;20181;-60
2023/03/29 04:39:09;;;;;;;7.97;4.13;;;;;;;5.81;100.00;100219.00;5047291;28;20189;-60
2023/03/29 04:41:34;;;;;;;4.47;3.60;;;;;;;5.90;100.00;100218.69;5047607;28;20747;-60
2023/03/29 04:44:02;;;;;;;4.20;3.80;;;;;;;5.83;100.00;100217.25;5058927;28;20196;-59
2023/03/29 04:46:27;;;;;;;5.97;4.07;;;;;;;5.90;100.00;100218.69;5050398;28;20642;-61
2023/03/29 04:48:53;;;;;;;6.03;3.30;;;;;;;5.94;100.00;100211.75;5051668;28;20192;-60
2023/03/29 04:51:20;;;;;;;5.07;3.97;;;;;;;5.66;100.00;100210.94;5062217;28;20229;-60
2023/03/29 04:53:47;;;;;;;8.27;5.90;;;;;;;5.60;100.00;100211.16;5055271;28;20186;-60
2023/03/29 04:56:13;;;;;;;4.17;3.77;;;;;;;5.84;100.00;100216.34;5050580;28;20663;-60
2023/03/29 04:58:38;;;;;;;5.53;4.13;;;;;;;5.93;100.00;100216.03;5051242;28;20273;-60
2023/03/29 05:01:04;;;;;;;4.80;3.83;;;;;;;5.72;100.00;100209.94;5057964;28;20219;-60
2023/03/29 05:03:30;;;;;;;6.53;4.73;;;;;;;5.81;100.00;100211.34;5057886;28;20169;-59
2023/03/29 05:06:01;;;;;;;5.17;3.83;;;;;;;5.89;100.00;100221.31;5051536;28;20541;-60
2023/03/29 05:08:27;;;;;;;4.60;3.87;;;;;;;6.05;100.00;100219.91;5051194;28;20667;-60
2023/03/29 05:10:52;;;;;;;6.07;4.00;;;;;;;5.98;100.00;100221.84;5042937;28;20263;-64
2023/03/29 05:13:17;;;;;;;7.27;4.50;;;;;;;5.89;100.00;100219.59;5068968;28;20205;-61
2023/03/29 05:15:43;;;;;;;4.40;3.80;;;;;;;5.90;100.00;100228.91;5051604;28;20199;-61
2023/03/29 05:18:08;;;;;;;7.37;4.60;;;;;;;6.00;100.00;100236.31;5051479;28;20516;-60
2023/03/29 05:20:33;;;;;;;5.20;3.87;;;;;;;5.87;100.00;100230.75;5049509;28;20313;-60
2023/03/29 05:22:59;;;;;;;5.57;4.80;;;;;;;5.78;100.00;100232.72;5075072;28;20259;-61
2023/03/29 05:25:25;;;;;;;7.83;4.20;;;;;;;5.87;100.00;100235.84;5051658;28;20663;-61
2023/03/29 05:27:50;;;;;;;9.30;4.00;;;;;;;5.95;100.00;100231.31;5051406;28;20691;-60
2023/03/29 05:30:16;;;;;;;3.90;3.50;;;;;;;5.66;100.00;100225.44;5044802;28;20222;-60
2023/03/29 05:32:41;;;;;;;7.53;4.30;;;;;;;5.65;100.00;100226.31;5063965;28;20283;-60
2023/03/29 05:35:07;;;;;;;4.27;3.87;;;;;;;5.79;100.00;100221.63;5051220;28;20177;-59
2023/03/29 05:37:33;;;;;;;5.60;4.33;;;;;;;5.80;100.00;100228.41;5049411;28;20188;-61
2023/03/29 05:39:59;;;;;;;6.30;4.93;;;;;;;5.85;100.00;100233.31;5040142;28;20196;-61
2023/03/29 05:42:25;;;;;;;8.43;4.40;;;;;;;6.05;100.00;100232.69;5053940;28;20224;-60
2023/03/29 05:44:50;;;;;;;5.60;4.33;;;;;;;6.23;100.00;100230.41;5050934;28;20501;-61
2023/03/29 05:47:15;;;;;;;4.80;4.20;;;;;;;6.06;100.00;100233.53;5051792;28;20268;-61
2023/03/29 05:49:41;;;;;;;7.07;4.53;;;;;;;6.24;100.00;100226.97;5055058;28;20188;-61
2023/03/29 05:52:07;;;;;;;6.53;4.53;;;;;;;6.29;100.00;100231.03;5062486;28;20227;-61
2023/03/29 05:54:32;;;;;;;8.20;4.90;;;;;;;6.51;100.00;100234.56;5052638;28;20185;-59
2023/03/29 05:56:57;;;;;;;5.97;4.87;;;;;;;6.63;100.00;100234.94;5053317;28;20544;-60
2023/03/29 05:59:23;;;;;;;8.93;5.70;;;;;;;6.73;100.00;100239.72;5053267;28;20174;-61
2023/03/29 06:01:49;;;;;;;8.50;4.90;;;;;;;6.87;100.00;100240.06;5072384;28;20224;-60
2023/03/29 06:04:14;;;;;;;6.37;4.37;;;;;;;6.84;100.00;100237.63;5057698;28;20181;-61
2023/03/29 06:06:40;;;;;;;8.43;4.37;;;;;;;6.74;100.00;100242.22;5053225;28;20185;-60
2023/03/29 06:09:06;;;;;;;12.97;4.93;;;;;;;7.00;100.00;100239.63;5050996;28;20573;-59
2023/03/29 06:11:31;;;;;;;10.20;4.60;;;;;;;6.70;100.00;100244.94;5067757;28;20258;-60
2023/03/29 06:13:57;;;;;;;4.73;4.13;;;;;;;6.81;100.00;100250.53;5057464;28;20287;-61
2023/03/29 06:16:22;;;;;;;6.23;4.20;;;;;;;6.60;100.00;100244.47;5053979;28;20227;-64
2023/03/29 06:18:48;;;;;;;8.00;4.47;;;;;;;6.59;100.00;100242.78;5054486;28;20628;-61
2023/03/29 06:21:13;;;;;;;4.70;4.30;;;;;;;6.77;100.00;100248.94;5060412;28;20232;-64
2023/03/29 06:23:38;;;;;;;8.07;5.07;;;;;;;6.96;100.00;100249.13;5066902;28;20185;-60
2023/03/29 06:26:04;;;;;;;8.13;5.47;;;;;;;7.23;100.00;100244.69;5054450;28;20201;-60
2023/03/29 06:28:30;;;;;;;6.90;5.00;;;;;;;7.39;100.00;100242.38;5086352;28;20189;-60
2023/03/29 06:31:00;;;;;;;6.43;4.83;;;;;;;7.58;100.00;100246.78;5058375;28;20694;-60
2023/03/29 06:33:26;;;;;;;7.07;4.40;;;;;;;7.42;100.00;100231.19;5060987;28;20273;-64
2023/03/29 06:35:51;;;;;;;8.20;5.27;;;;;;;7.29;100.00;100241.06;5085938;28;20295;-59
2023/03/29 06:38:18;;;;;;;6.80;4.90;;;;;;;7.54;100.00;100245.22;5054231;28;20187;-59
2023/03/29 06:40:44;;;;;;;9.27;4.47;;;;;;;7.69;100.00;100241.19;5041279;28;20247;-60
2023/03/29 06:43:09;;;;;;;6.43;4.27;;;;;;;7.70;100.00;100243.72;5074910;28;20213;-59
2023/03/29 06:45:36;;;;;;;6.90;4.77;;;;;;;7.94;100.00;100235.09;5053535;28;20259;-60
2023/03/29 06:48:03;;;;;;;5.67;4.57;;;;;;;8.04;100.00;100241.50;5044845;28;20174;-60
2023/03/29 06:50:29;;;;;;;6.33;4.33;;;;;;;8.10;100.00;100243.81;5077333;28;20317;-60
2023/03/29 06:52:55;;;;;;;5.30;4.47;;;;;;;8.26;100.00;100244.00;5083013;28;20268;-60
2023/03/29 06:55:22;;;;;;;4.67;3.90;;;;;;;8.46;100.00;100239.72;5053884;28;20712;-60
2023/03/29 06:57:47;;;;;;;5.90;4.47;;;;;;;8.44;100.00;100238.97;5052561;28;20209;-60
2023/03/29 07:00:17;;;;;;;6.17;4.40;;;;;;;8.69;100.00;100244.69;5031748;28;20228;-62
2023/03/29 07:02:44;;;;;;;5.83;3.73;;;;;;;8.77;100.00;100246.09;5061265;28;20637;-60
2023/03/29 07:05:12;;;;;;;6.30;3.20;;;;;;;9.08;100.00;100243.00;5084040;28;20192;-58
2023/03/29 07:07:55;;;;;;;4.17;3.53;;;;;;;9.36;100.00;100241.69;5053433;28;20227;-60
2023/03/29 07:10:31;;;;;;;7.77;3.97;;;;;;;9.35;100.00;100240.03;5048110;28;20249;-59
2023/03/29 07:13:00;;;;;;;4.97;3.40;;;;;;;9.52;100.00;100239.22;5077228;28;20279;-59
2023/03/29 07:15:26;;;;;;;4.90;3.33;;;;;;;9.75;100.00;100238.13;5045840;28;20245;-59
2023/03/29 07:17:52;;;;;;;3.50;3.00;;;;;;;9.89;100.00;100244.34;5064000;28;20722;-59
2023/03/29 07:20:18;;;;;;;5.03;3.20;;;;;;;9.84;100.00;100240.22;5076969;28;20609;-61
2023/03/29 07:22:45;;;;;;;3.87;3.20;;;;;;;9.84;100.00;100240.22;5080534;28;20184;-60
2023/03/29 07:25:11;;;;;;;6.03;3.00;;;;;;;10.02;100.00;100242.78;5052003;28;20609;-59
2023/03/29 07:27:38;;;;;;;7.77;5.27;;;;;;;9.76;100.00;100249.22;5051805;28;20182;-59
2023/03/29 07:30:08;;;;;;;26.17;14.93;;;;;;;9.87;100.00;100241.00;5082612;28;20181;-59
2023/03/29 07:32:35;;;;;;;10.23;6.23;;;;;;;10.09;100.00;100245.91;5029999;28;20624;-59
2023/03/29 07:35:00;;;;;;;4.23;3.27;;;;;;;9.92;100.00;100251.88;5051912;28;20687;-59
2023/03/29 07:37:25;;;;;;;4.00;3.17;;;;;;;10.00;100.00;100260.88;5052848;28;20174;-59
2023/03/29 07:39:51;;;;;;;4.33;2.90;;;;;;;10.14;100.00;100255.03;5042944;28;20178;-59
2023/03/29 07:42:16;;;;;;;3.10;2.80;;;;;;;10.16;100.00;100263.50;5071692;28;20223;-59
2023/03/29 07:44:42;;;;;;;4.60;2.93;;;;;;;10.27;100.00;100267.25;5052542;28;20193;-58
2023/03/29 07:47:07;;;;;;;3.87;2.80;;;;;;;10.35;100.00;100270.28;5052505;28;20194;-58
2023/03/29 07:49:32;;;;;;;3.53;2.77;;;;;;;10.47;100.00;100267.13;5053039;28;20188;-58
2023/03/29 07:51:58;;;;;;;4.53;3.63;;;;;;;10.51;99.60;100275.50;5065560;28;20239;-61
2023/03/29 07:54:23;;;;;;;5.77;3.17;;;;;;;10.23;97.54;100268.34;5045322;28;20277;-58
2023/03/29 07:56:49;;;;;;;4.37;2.90;;;;;;;10.33;96.99;100274.66;5042048;28;20648;-58
2023/03/29 07:59:15;;;;;;;4.67;3.13;;;;;;;10.19;98.56;100267.66;5084580;28;20700;-58
2023/03/29 08:01:41;;;;;;;5.40;2.77;;;;;;;10.31;98.84;100271.38;5068835;28;20377;-58
2023/03/29 08:04:06;;;;;;;6.50;3.20;;;;;;;10.29;99.30;100266.28;5058030;28;20235;-59
2023/03/29 08:06:32;;;;;;;5.90;3.33;;;;;;;10.22;98.78;100269.25;5052464;28;20188;-58
2023/03/29 08:08:58;;;;;;;6.67;3.20;;;;;;;10.21;99.69;100265.84;5052113;28;20221;-60
2023/03/29 08:11:24;;;;;;;3.87;3.10;;;;;;;10.39;100.00;100261.53;5055013;28;20264;-58
2023/03/29 08:13:50;;;;;;;4.67;2.87;;;;;;;10.37;98.50;100257.38;5061836;28;20194;-58
2023/03/29 08:16:16;;;;;;;5.80;3.00;;;;;;;10.27;99.23;100262.13;5052221;28;20545;-59
2023/03/29 08:18:41;;;;;;;4.17;3.50;;;;;;;10.39;99.53;100253.81;5051744;28;20189;-59
2023/03/29 08:21:07;;;;;;;5.50;2.77;;;;;;;10.72;97.96;100255.56;5059539;28;20582;-59
2023/03/29 08:23:32;;;;;;;4.13;2.80;;;;;;;10.71;94.48;100258.22;5066642;28;20188;-59
2023/03/29 08:25:57;;;;;;;4.23;3.20;;;;;;;10.83;96.30;100260.16;5052081;28;20197;-59
2023/03/29 08:28:23;;;;;;;3.37;3.07;;;;;;;11.20;96.25;100255.59;5051609;28;20264;-61
2023/03/29 08:30:48;;;;;;;7.80;3.83;;;;;;;11.27;93.37;100248.34;5054079;28;20627;-59
2023/03/29 08:33:13;;;;;;;8.50;3.87;;;;;;;11.32;92.82;100243.75;5071175;28;20185;-59
2023/03/29 08:35:39;;;;;;;4.37;3.17;;;;;;;11.38;91.20;100243.44;5051884;28;20655;-59
2023/03/29 08:38:04;;;;;;;3.73;3.27;;;;;;;11.09;94.23;100242.47;5051477;28;20197;-59
2023/03/29 08:40:29;;;;;;;4.50;3.00;;;;;;;10.83;93.36;100236.97;5035350;28;20698;-59
2023/03/29 08:43:11;;;;;;;5.20;3.30;;;;;;;10.72;96.29;100244.44;5076198;28;20177;-59
2023/03/29 08:46:06;;;;;;;3.70;2.93;;;;;;;10.62;97.07;100251.81;5050288;28;20329;-59
2023/03/29 08:48:37;;;;;;;8.10;3.87;;;;;;;10.89;97.04;100258.97;5043626;28;20193;-58
2023/03/29 08:51:12;;;;;;;3.53;3.10;;;;;;;11.01;97.57;100275.50;5063081;28;20224;-59
2023/03/29 08:53:46;;;;;;;5.93;4.23;;;;;;;11.06;98.44;100270.94;5047914;28;20188;-60
2023/03/29 08:56:16;;;;;;;6.53;3.60;;;;;;;10.64;97.50;100271.41;5051683;28;20697;-58
2023/03/29 08:58:42;;;;;;;5.63;3.50;;;;;;;10.53;97.49;100268.56;5051488;28;20645;-59
2023/03/29 09:01:10;;;;;;;6.03;3.43;;;;;;;10.43;96.95;100262.22;5052033;28;20240;-59
2023/03/29 09:03:44;;;;;;;6.57;3.90;;;;;;;10.53;97.58;100267.72;5056945;28;20268;-59
2023/03/29 09:06:11;;;;;;;6.67;3.23;;;;;;;10.85;96.50;100266.03;5071389;28;20201;-59
2023/03/29 09:08:47;;;;;;;7.33;3.40;;;;;;;11.18;96.30;100267.72;5049754;28;20256;-58
2023/03/29 09:11:19;;;;;;;5.40;3.40;;;;;;;11.27;94.66;100264.63;5060204;28;20245;-60
2023/03/29 09:14:07;;;;;;;4.10;3.47;;;;;;;11.34;94.79;100262.56;5055427;28;20198;-60
2023/03/29 09:17:12;;;;;;;3.33;2.97;;;;;;;11.67;92.49;100259.03;5049926;28;20276;-61
2023/03/29 09:19:47;;;;;;;5.33;3.10;;;;;;;11.53;93.58;100253.81;5050218;28;20323;-60
2023/03/29 09:22:21;;;;;;;5.27;3.30;;;;;;;11.49;93.01;100253.13;5057082;28;20269;-60
2023/03/29 09:25:04;;;;;;;5.40;3.30;;;;;;;11.79;92.65;100249.75;5049477;28;20189;-59
2023/03/29 09:27:53;;;;;;;4.27;3.03;;;;;;;11.82;91.13;100241.84;5051395;28;20545;-59
2023/03/29 09:30:48;;;;;;;3.87;3.03;;;;;;;12.10;89.82;100242.84;5043874;28;20192;-60
2023/03/29 09:33:22;;;;;;;4.50;3.77;;;;;;;12.51;87.88;100243.88;5060266;28;20177;-59
2023/03/29 09:36:03;;;;;;;5.10;3.63;;;;;;;12.63;85.67;100250.03;5045339;28;20192;-59
2023/03/29 09:38:30;;;;;;;5.77;3.63;;;;;;;12.89;85.54;100257.03;5059194;28;20698;-59
2023/03/29 09:41:03;;;;;;;13.13;3.70;;;;;;;12.50;85.97;100257.69;5042041;28;20224;-59
2023/03/29 09:43:32;;;;;;;6.33;3.80;;;;;;;12.30;89.96;100254.56;5057433;28;20200;-59
2023/03/29 09:46:03;;;;;;;4.10;3.60;;;;;;;11.99;92.13;100265.84;5037427;28;20202;-59
2023/03/29 09:48:33;;;;;;;4.63;3.60;;;;;;;11.90;94.07;100262.84;5049511;28;20272;-60
2023/03/29 09:50:59;;;;;;;4.87;3.47;;;;;;;11.98;95.70;100254.69;5050496;28;20284;-59
2023/03/29 09:53:25;;;;;;;4.57;3.40;;;;;;;11.94;96.04;100245.44;5057896;28;20181;-60
2023/03/29 09:55:51;;;;;;;5.20;3.67;;;;;;;11.98;96.24;100246.94;5050782;28;20651;-59
2023/03/29 09:58:23;;;;;;;5.23;3.30;;;;;;;12.22;95.82;100243.88;5083119;28;20180;-58
2023/03/29 10:00:48;;;;;;;7.13;4.00;;;;;;;12.47;94.78;100242.41;5049149;28;20255;-60
2023/03/29 10:03:24;;;;;;;4.27;3.90;;;;;;;12.01;94.08;100239.06;5070360;28;20197;-59
2023/03/29 10:05:53;;;;;;;4.10;3.60;;;;;;;11.88;97.13;100228.59;5050752;28;20358;-58
2023/03/29 10:08:26;;;;;;;4.87;3.30;;;;;;;11.82;98.45;100228.13;5050135;28;20656;-59
2023/03/29 10:10:53;;;;;;;7.10;3.70;;;;;;;11.95;99.10;100226.50;5076066;28;20229;-58
2023/03/29 10:13:30;;;;;;;9.77;7.33;;;;;;;12.33;96.27;100236.34;5081960;28;20208;-61
2023/03/29 10:16:08;;;;;;;8.80;5.80;;;;;;;12.65;93.79;100233.56;5081484;28;20636;-59
2023/03/29 10:18:40;;;;;;;6.83;3.97;;;;;;;12.88;92.02;100228.72;5050524;28;20600;-60
2023/03/29 10:21:06;;;;;;;8.63;7.10;;;;;;;12.87;91.80;100222.72;5063580;28;20237;-59
2023/03/29 10:23:34;;;;;;;9.80;5.33;;;;;;;12.69;92.09;100216.09;5063961;28;20185;-59
2023/03/29 10:26:03;;;;;;;12.87;9.43;;;;;;;14.08;85.58;100212.44;5048362;28;20213;-60
2023/03/29 10:28:30;;;;;;;12.30;9.07;;;;;;;15.28;76.37;100217.94;5074854;28;20275;-60
2023/03/29 10:30:59;;;;;;;4.67;3.70;;;;;;;15.37;71.70;100193.97;5047499;28;20231;-59
2023/03/29 10:33:31;;;;;;;4.47;3.20;;;;;;;14.55;72.32;100188.56;5055392;28;20187;-59
2023/03/29 10:35:58;;;;;;;4.07;3.20;;;;;;;14.88;72.80;100190.56;5052706;28;20222;-59
2023/03/29 10:38:27;;;;;;;7.90;6.03;;;;;;;15.62;71.10;100181.78;5052609;28;20284;-61
2023/03/29 10:40:54;;;;;;;7.10;5.10;;;;;;;16.25;66.73;100184.84;5043384;28;20250;-59
2023/03/29 10:43:28;;;;;;;6.67;5.73;;;;;;;14.95;71.32;100191.78;5056520;28;20182;-59
2023/03/29 10:45:56;;;;;;;6.77;4.73;;;;;;;15.01;76.28;100193.94;5052432;28;20197;-60
2023/03/29 10:48:29;;;;;;;5.80;4.17;;;;;;;14.82;74.64;100197.00;5057459;28;20291;-68
2023/03/29 10:50:58;;;;;;;7.00;3.63;;;;;;;13.69;85.71;100188.28;5047088;28;20687;-59
2023/03/29 10:53:27;;;;;;;5.23;4.73;;;;;;;13.51;91.11;100182.59;5055060;28;20656;-58
2023/03/29 10:56:14;;;;;;;10.03;4.90;;;;;;;13.62;89.76;100176.69;5051228;28;20205;-59
2023/03/29 10:59:10;;;;;;;13.33;8.97;;;;;;;14.28;85.90;100182.59;5053297;28;20613;-59
2023/03/29 11:01:55;;;;;;;6.17;5.53;;;;;;;14.24;87.92;100173.41;5043932;28;20229;-59
2023/03/29 11:04:33;;;;;;;5.70;4.53;;;;;;;14.61;86.57;100172.59;5054584;28;20213;-61
2023/03/29 11:07:16;;;;;;;5.33;3.93;;;;;;;14.52;88.83;100184.41;5051416;28;20185;-62
2023/03/29 11:09:53;;;;;;;5.03;4.20;;;;;;;14.19;89.23;100180.66;5058505;28;20315;-59
2023/03/29 11:12:37;;;;;;;6.40;5.00;;;;;;;13.96;94.25;100180.44;5055109;28;20262;-60
2023/03/29 11:15:19;;;;;;;7.73;5.70;;;;;;;14.29;91.50;100176.50;5046371;28;20185;-59
2023/03/29 11:17:49;;;;;;;11.10;8.20;;;;;;;14.67;91.13;100180.81;5059963;28;20196;-61
2023/03/29 11:20:17;;;;;;;10.17;7.70;;;;;;;14.84;86.89;100184.75;5046538;28;20231;-61
2023/03/29 11:22:56;;;;;;;6.87;5.37;;;;;;;14.88;88.88;100180.19;5051111;28;20301;-60
2023/03/29 11:25:47;;;;;;;10.10;9.00;;;;;;;15.03;90.80;100175.69;5051800;28;20208;-58
2023/03/29 11:28:23;;;;;;;6.73;5.63;;;;;;;14.53;91.20;100181.72;5051651;28;20201;-59
2023/03/29 11:31:16;;;;;;;6.93;4.50;;;;;;;15.13;90.26;100171.50;5029128;28;20251;-58
2023/03/29 11:33:57;;;;;;;7.70;4.70;;;;;;;15.31;87.30;100173.69;5050066;28;20188;-60
2023/03/29 11:36:49;;;;;;;5.67;3.30;;;;;;;15.26;88.40;100170.63;5043095;28;20185;-59